createdAt,value
2017-12-29T00:00:13.817Z,0
2017-12-29T00:00:54.377Z,0
2017-12-29T00:01:34.945Z,0
2017-12-29T00:02:15.538Z,0
2017-12-29T00:02:56.123Z,0
2017-12-29T00:03:36.681Z,0
2017-12-29T00:04:17.231Z,0
2017-12-29T00:04:57.791Z,0
2017-12-29T00:05:38.367Z,0
2017-12-29T00:06:18.944Z,0
2017-12-29T00:06:59.498Z,0
2017-12-29T00:07:40.070Z,0
2017-12-29T00:08:20.649Z,0
2017-12-29T00:09:01.248Z,0
2017-12-29T00:09:41.808Z,0
2017-12-29T00:10:22.375Z,0
2017-12-29T00:11:02.935Z,0
2017-12-29T00:11:43.581Z,0
2017-12-29T00:12:24.164Z,0
2017-12-29T00:13:04.718Z,0
2017-12-29T00:13:45.280Z,0
2017-12-29T00:14:25.841Z,0
2017-12-29T00:15:06.406Z,0
2017-12-29T00:15:46.966Z,0
2017-12-29T00:16:27.527Z,0
2017-12-29T00:17:08.136Z,0
2017-12-29T00:17:48.708Z,0
2017-12-29T00:18:29.278Z,0
2017-12-29T00:19:09.852Z,0
2017-12-29T00:19:50.428Z,0
2017-12-29T00:20:30.988Z,0
2017-12-29T00:21:11.561Z,0
2017-12-29T00:21:52.128Z,0
2017-12-29T00:22:32.709Z,0
2017-12-29T00:23:13.275Z,0
2017-12-29T00:23:53.841Z,0
2017-12-29T00:24:34.455Z,0
2017-12-29T00:25:14.992Z,0
2017-12-29T00:25:57.222Z,0
2017-12-29T00:26:37.801Z,0
2017-12-29T00:27:18.376Z,0
2017-12-29T00:27:58.937Z,0
2017-12-29T00:28:39.516Z,0
2017-12-29T00:29:20.094Z,0
2017-12-29T00:30:00.696Z,0
2017-12-29T00:30:41.268Z,0
2017-12-29T00:31:21.823Z,0
2017-12-29T00:32:02.393Z,0
2017-12-29T00:32:42.982Z,0
2017-12-29T00:33:23.554Z,0
2017-12-29T00:34:04.110Z,0
2017-12-29T00:34:44.660Z,0
2017-12-29T00:35:25.215Z,0
2017-12-29T00:36:05.789Z,0
2017-12-29T00:36:46.375Z,0
2017-12-29T00:37:26.966Z,0
2017-12-29T00:38:07.526Z,0
2017-12-29T00:38:48.092Z,0
2017-12-29T00:39:28.646Z,0
2017-12-29T00:40:09.241Z,0
2017-12-29T00:40:49.801Z,0
2017-12-29T00:41:30.363Z,0
2017-12-29T00:42:10.918Z,0
2017-12-29T00:42:51.470Z,0
2017-12-29T00:43:32.030Z,0
2017-12-29T00:44:12.593Z,0
2017-12-29T00:44:53.150Z,0
2017-12-29T00:45:33.715Z,0
2017-12-29T00:46:14.271Z,0
2017-12-29T00:46:54.825Z,0
2017-12-29T00:47:35.393Z,0
2017-12-29T00:48:15.949Z,0
2017-12-29T00:48:56.524Z,0
2017-12-29T00:49:37.124Z,0
2017-12-29T00:50:17.697Z,0
2017-12-29T00:50:58.252Z,0
2017-12-29T00:51:38.819Z,0
2017-12-29T00:52:19.380Z,0
2017-12-29T00:52:59.973Z,0
2017-12-29T00:53:40.563Z,0
2017-12-29T00:54:21.128Z,0
2017-12-29T00:55:01.685Z,0
2017-12-29T00:55:42.273Z,0
2017-12-29T00:56:22.877Z,0
2017-12-29T00:57:03.434Z,0
2017-12-29T00:57:43.987Z,0
2017-12-29T00:58:24.582Z,0
2017-12-29T00:59:05.181Z,0
2017-12-29T00:59:45.742Z,0
2017-12-29T01:00:26.331Z,0
2017-12-29T01:01:06.921Z,0
2017-12-29T01:01:47.495Z,0
2017-12-29T01:02:28.075Z,0
2017-12-29T01:03:08.637Z,0
2017-12-29T01:03:49.200Z,0
2017-12-29T01:04:29.855Z,0
2017-12-29T01:05:10.426Z,0
2017-12-29T01:05:50.994Z,0
2017-12-29T01:06:31.548Z,0
2017-12-29T01:07:12.120Z,0
2017-12-29T01:07:52.680Z,0
2017-12-29T01:08:33.259Z,0
2017-12-29T01:09:13.836Z,0
2017-12-29T01:09:54.444Z,0
2017-12-29T01:10:35.029Z,0
2017-12-29T01:11:15.599Z,0
2017-12-29T01:11:56.155Z,0
2017-12-29T01:12:36.736Z,0
2017-12-29T01:13:17.306Z,0
2017-12-29T01:13:57.909Z,0
2017-12-29T01:14:38.503Z,0
2017-12-29T01:15:19.107Z,0
2017-12-29T01:15:59.680Z,0
2017-12-29T01:16:40.252Z,0
2017-12-29T01:17:20.824Z,0
2017-12-29T01:18:01.387Z,0
2017-12-29T01:18:41.957Z,0
2017-12-29T01:19:22.527Z,0
2017-12-29T01:20:03.091Z,0
2017-12-29T01:20:43.678Z,0
2017-12-29T01:21:24.244Z,0
2017-12-29T01:22:04.802Z,0
2017-12-29T01:22:45.358Z,0
2017-12-29T01:23:25.918Z,0
2017-12-29T01:24:06.478Z,0
2017-12-29T01:24:47.048Z,0
2017-12-29T01:25:27.604Z,0
2017-12-29T01:26:08.172Z,0
2017-12-29T01:26:48.732Z,0
2017-12-29T01:27:29.294Z,0
2017-12-29T01:28:09.859Z,0
2017-12-29T01:28:50.428Z,0
2017-12-29T01:29:30.996Z,0
2017-12-29T01:30:11.577Z,0
2017-12-29T01:30:52.135Z,0
2017-12-29T01:31:32.690Z,0
2017-12-29T01:32:13.268Z,0
2017-12-29T01:32:53.841Z,0
2017-12-29T01:33:34.423Z,0
2017-12-29T01:34:14.989Z,0
2017-12-29T01:34:55.590Z,0
2017-12-29T01:35:36.155Z,0
2017-12-29T01:36:16.718Z,0
2017-12-29T01:36:57.285Z,0
2017-12-29T01:37:37.845Z,0
2017-12-29T01:38:18.410Z,0
2017-12-29T01:38:58.983Z,0
2017-12-29T01:39:39.557Z,0
2017-12-29T01:40:20.225Z,0
2017-12-29T01:41:00.787Z,0
2017-12-29T01:41:41.333Z,0
2017-12-29T01:42:21.912Z,0
2017-12-29T01:43:02.489Z,0
2017-12-29T01:43:43.046Z,0
2017-12-29T01:44:23.601Z,0
2017-12-29T01:45:04.160Z,0
2017-12-29T01:45:44.705Z,0
2017-12-29T01:46:25.263Z,0
2017-12-29T01:47:05.820Z,0
2017-12-29T01:47:49.691Z,0
2017-12-29T01:48:30.254Z,0
2017-12-29T01:49:10.815Z,0
2017-12-29T01:49:51.368Z,0
2017-12-29T01:50:31.928Z,0
2017-12-29T01:51:12.490Z,0
2017-12-29T01:51:53.039Z,0
2017-12-29T01:52:33.613Z,0
2017-12-29T01:53:14.177Z,0
2017-12-29T01:53:54.750Z,0
2017-12-29T01:54:35.347Z,0
2017-12-29T01:55:15.930Z,0
2017-12-29T01:55:56.509Z,0
2017-12-29T01:56:37.082Z,0
2017-12-29T01:57:17.641Z,0
2017-12-29T01:57:58.195Z,0
2017-12-29T01:58:38.760Z,0
2017-12-29T01:59:19.336Z,0
2017-12-29T01:59:59.906Z,0
2017-12-29T02:00:40.482Z,0
2017-12-29T02:01:21.048Z,0
2017-12-29T02:02:01.602Z,0
2017-12-29T02:02:42.154Z,0
2017-12-29T02:03:22.744Z,0
2017-12-29T02:04:03.294Z,0
2017-12-29T02:04:43.872Z,0
2017-12-29T02:05:24.451Z,0
2017-12-29T02:06:05.021Z,0
2017-12-29T02:06:45.586Z,0
2017-12-29T02:07:26.172Z,0
2017-12-29T02:08:06.737Z,0
2017-12-29T02:08:47.305Z,0
2017-12-29T02:09:27.860Z,0
2017-12-29T02:10:08.420Z,0
2017-12-29T02:10:48.991Z,0
2017-12-29T02:11:29.552Z,0
2017-12-29T02:12:10.123Z,0
2017-12-29T02:12:50.702Z,0
2017-12-29T02:13:31.266Z,0
2017-12-29T02:14:11.833Z,0
2017-12-29T02:14:52.481Z,0
2017-12-29T02:15:33.037Z,0
2017-12-29T02:16:13.631Z,0
2017-12-29T02:16:54.188Z,0
2017-12-29T02:17:34.744Z,0
2017-12-29T02:18:15.323Z,0
2017-12-29T02:18:55.880Z,0
2017-12-29T02:19:36.443Z,0
2017-12-29T02:20:17.033Z,0
2017-12-29T02:20:57.633Z,0
2017-12-29T02:21:38.200Z,0
2017-12-29T02:22:18.789Z,0
2017-12-29T02:22:59.387Z,0
2017-12-29T02:23:39.955Z,0
2017-12-29T02:24:20.512Z,0
2017-12-29T02:25:01.078Z,0
2017-12-29T02:25:41.644Z,0
2017-12-29T02:26:22.278Z,0
2017-12-29T02:27:02.878Z,0
2017-12-29T02:27:43.467Z,0
2017-12-29T02:28:24.046Z,0
2017-12-29T02:29:04.637Z,0
2017-12-29T02:29:45.214Z,0
2017-12-29T02:30:25.792Z,0
2017-12-29T02:31:06.346Z,0
2017-12-29T02:31:46.915Z,0
2017-12-29T02:32:27.480Z,0
2017-12-29T02:33:08.075Z,0
2017-12-29T02:33:48.648Z,0
2017-12-29T02:34:29.218Z,0
2017-12-29T02:35:09.779Z,0
2017-12-29T02:35:50.338Z,0
2017-12-29T02:36:30.896Z,0
2017-12-29T02:37:11.473Z,0
2017-12-29T02:37:52.030Z,0
2017-12-29T02:38:32.588Z,0
2017-12-29T02:39:13.149Z,0
2017-12-29T02:39:53.745Z,0
2017-12-29T02:40:34.299Z,0
2017-12-29T02:41:14.859Z,0
2017-12-29T02:41:55.443Z,0
2017-12-29T02:42:36.010Z,0
2017-12-29T02:43:16.601Z,0
2017-12-29T02:43:57.180Z,0
2017-12-29T02:44:37.740Z,0
2017-12-29T02:45:18.285Z,0
2017-12-29T02:45:58.844Z,0
2017-12-29T02:46:39.429Z,0
2017-12-29T02:47:19.997Z,0
2017-12-29T02:48:00.556Z,0
2017-12-29T02:48:41.141Z,0
2017-12-29T02:49:21.713Z,0
2017-12-29T02:50:02.265Z,0
2017-12-29T02:50:42.823Z,0
2017-12-29T02:51:23.385Z,0
2017-12-29T02:52:03.944Z,0
2017-12-29T02:52:44.518Z,0
2017-12-29T02:53:25.074Z,0
2017-12-29T02:54:05.642Z,0
2017-12-29T02:54:46.206Z,0
2017-12-29T02:55:26.764Z,0
2017-12-29T02:56:07.331Z,0
2017-12-29T02:56:47.948Z,0
2017-12-29T02:57:28.536Z,0
2017-12-29T02:58:09.121Z,0
2017-12-29T02:58:49.741Z,0
2017-12-29T02:59:30.356Z,0
2017-12-29T03:00:10.944Z,0
2017-12-29T03:00:51.521Z,0
2017-12-29T03:01:32.094Z,0
2017-12-29T03:02:12.650Z,0
2017-12-29T03:02:53.210Z,0
2017-12-29T03:03:33.768Z,0
2017-12-29T03:04:14.325Z,0
2017-12-29T03:04:54.887Z,0
2017-12-29T03:05:35.452Z,0
2017-12-29T03:06:16.027Z,0
2017-12-29T03:06:56.586Z,0
2017-12-29T03:07:37.149Z,0
2017-12-29T03:08:17.714Z,0
2017-12-29T03:08:58.275Z,0
2017-12-29T03:09:38.841Z,0
2017-12-29T03:10:19.411Z,0
2017-12-29T03:10:59.978Z,0
2017-12-29T03:11:40.544Z,0
2017-12-29T03:12:21.095Z,0
2017-12-29T03:13:01.683Z,0
2017-12-29T03:13:42.284Z,0
2017-12-29T03:14:22.865Z,0
2017-12-29T03:15:03.425Z,0
2017-12-29T03:15:43.977Z,0
2017-12-29T03:16:24.546Z,0
2017-12-29T03:17:05.113Z,0
2017-12-29T03:17:45.688Z,0
2017-12-29T03:18:26.266Z,0
2017-12-29T03:19:06.831Z,0
2017-12-29T03:19:47.420Z,0
2017-12-29T03:20:27.973Z,0
2017-12-29T03:21:08.547Z,0
2017-12-29T03:21:49.110Z,0
2017-12-29T03:22:29.669Z,0
2017-12-29T03:23:10.233Z,0
2017-12-29T03:23:50.812Z,0
2017-12-29T03:24:31.377Z,0
2017-12-29T03:25:11.940Z,0
2017-12-29T03:25:52.496Z,0
2017-12-29T03:26:33.070Z,0
2017-12-29T03:27:13.660Z,0
2017-12-29T03:27:54.228Z,0
2017-12-29T03:28:34.784Z,0
2017-12-29T03:29:15.358Z,0
2017-12-29T03:29:55.916Z,0
2017-12-29T03:30:36.475Z,0
2017-12-29T03:31:17.042Z,0
2017-12-29T03:31:57.591Z,0
2017-12-29T03:32:38.149Z,0
2017-12-29T03:33:18.712Z,0
2017-12-29T03:33:59.264Z,0
2017-12-29T03:34:39.826Z,0
2017-12-29T03:35:20.415Z,0
2017-12-29T03:36:00.978Z,0
2017-12-29T03:36:41.541Z,0
2017-12-29T03:37:22.102Z,0
2017-12-29T03:38:02.703Z,0
2017-12-29T03:38:43.261Z,0
2017-12-29T03:39:23.815Z,0
2017-12-29T03:40:04.368Z,0
2017-12-29T03:40:44.959Z,0
2017-12-29T03:41:25.529Z,0
2017-12-29T03:42:06.088Z,0
2017-12-29T03:42:46.639Z,0
2017-12-29T03:43:27.195Z,0
2017-12-29T03:44:07.757Z,0
2017-12-29T03:44:48.311Z,0
2017-12-29T03:45:28.888Z,0
2017-12-29T03:46:09.502Z,0
2017-12-29T03:46:50.090Z,0
2017-12-29T03:47:30.644Z,0
2017-12-29T03:48:11.204Z,0
2017-12-29T03:48:51.775Z,0
2017-12-29T03:49:32.346Z,0
2017-12-29T03:50:12.908Z,0
2017-12-29T03:50:53.468Z,0
2017-12-29T03:51:34.053Z,0
2017-12-29T03:52:14.629Z,0
2017-12-29T03:52:55.190Z,0
2017-12-29T03:53:35.749Z,0
2017-12-29T03:54:16.317Z,0
2017-12-29T03:54:56.898Z,0
2017-12-29T03:55:37.488Z,0
2017-12-29T03:56:18.068Z,0
2017-12-29T03:56:58.653Z,0
2017-12-29T03:57:39.208Z,0
2017-12-29T03:58:19.784Z,0
2017-12-29T03:59:00.372Z,0
2017-12-29T03:59:40.962Z,0
2017-12-29T04:00:21.529Z,0
2017-12-29T04:01:02.844Z,0
2017-12-29T04:01:43.434Z,0
2017-12-29T04:02:23.997Z,0
2017-12-29T04:03:04.559Z,0
2017-12-29T04:03:45.136Z,0
2017-12-29T04:04:25.701Z,0
2017-12-29T04:05:06.312Z,0
2017-12-29T04:05:46.896Z,0
2017-12-29T04:06:27.456Z,0
2017-12-29T04:07:08.030Z,0
2017-12-29T04:07:48.621Z,0
2017-12-29T04:08:29.182Z,0
2017-12-29T04:09:09.740Z,0
2017-12-29T04:09:50.308Z,0
2017-12-29T04:10:30.875Z,0
2017-12-29T04:11:11.442Z,0
2017-12-29T04:11:52.002Z,0
2017-12-29T04:12:32.550Z,0
2017-12-29T04:13:13.108Z,0
2017-12-29T04:13:53.677Z,0
2017-12-29T04:14:34.227Z,0
2017-12-29T04:15:14.779Z,0
2017-12-29T04:15:55.336Z,0
2017-12-29T04:16:35.930Z,0
2017-12-29T04:17:16.506Z,0
2017-12-29T04:17:57.105Z,0
2017-12-29T04:18:37.676Z,0
2017-12-29T04:19:18.220Z,0
2017-12-29T04:19:58.784Z,0
2017-12-29T04:20:39.368Z,0
2017-12-29T04:21:19.925Z,0
2017-12-29T04:22:00.478Z,0
2017-12-29T04:22:41.039Z,0
2017-12-29T04:23:21.605Z,0
2017-12-29T04:24:02.168Z,0
2017-12-29T04:24:42.764Z,0
2017-12-29T04:25:23.315Z,0
2017-12-29T04:26:03.872Z,0
2017-12-29T04:26:44.426Z,0
2017-12-29T04:27:24.979Z,0
2017-12-29T04:28:05.534Z,0
2017-12-29T04:28:46.092Z,0
2017-12-29T04:29:26.663Z,0
2017-12-29T04:30:07.230Z,0
2017-12-29T04:30:47.835Z,0
2017-12-29T04:31:28.411Z,0
2017-12-29T04:32:08.985Z,0
2017-12-29T04:32:49.550Z,0
2017-12-29T04:33:30.131Z,0
2017-12-29T04:34:10.690Z,0
2017-12-29T04:34:51.268Z,0
2017-12-29T04:35:31.836Z,0
2017-12-29T04:36:12.399Z,0
2017-12-29T04:36:52.964Z,0
2017-12-29T04:37:33.527Z,0
2017-12-29T04:38:14.093Z,0
2017-12-29T04:38:54.654Z,0
2017-12-29T04:39:35.245Z,0
2017-12-29T04:40:15.810Z,0
2017-12-29T04:40:56.361Z,0
2017-12-29T04:41:36.951Z,0
2017-12-29T04:42:17.517Z,0
2017-12-29T04:42:58.115Z,0
2017-12-29T04:43:38.680Z,0
2017-12-29T04:44:19.258Z,0
2017-12-29T04:44:59.864Z,0
2017-12-29T04:45:40.430Z,0
2017-12-29T04:46:20.995Z,0
2017-12-29T04:47:01.553Z,0
2017-12-29T04:47:42.116Z,0
2017-12-29T04:48:22.699Z,0
2017-12-29T04:49:03.273Z,0
2017-12-29T04:49:43.834Z,0
2017-12-29T04:50:24.392Z,0
2017-12-29T04:51:05.797Z,0
2017-12-29T04:51:46.359Z,0
2017-12-29T04:52:26.947Z,0
2017-12-29T04:53:07.510Z,0
2017-12-29T04:53:48.089Z,0
2017-12-29T04:54:28.641Z,0
2017-12-29T04:55:09.201Z,0
2017-12-29T04:55:49.786Z,0
2017-12-29T04:56:30.352Z,0
2017-12-29T04:57:10.930Z,0
2017-12-29T04:57:51.496Z,0
2017-12-29T04:58:32.057Z,0
2017-12-29T04:59:12.610Z,0
2017-12-29T04:59:53.200Z,0
2017-12-29T05:00:33.752Z,0
2017-12-29T05:01:14.312Z,0
2017-12-29T05:01:54.879Z,0
2017-12-29T05:02:35.459Z,0
2017-12-29T05:03:16.018Z,0
2017-12-29T05:03:56.621Z,0
2017-12-29T05:04:37.195Z,0
2017-12-29T05:05:17.759Z,0
2017-12-29T05:05:58.346Z,0
2017-12-29T05:06:38.922Z,0
2017-12-29T05:07:19.470Z,0
2017-12-29T05:08:00.049Z,0
2017-12-29T05:08:40.602Z,0
2017-12-29T05:09:21.164Z,0
2017-12-29T05:10:01.717Z,0
2017-12-29T05:10:42.286Z,0
2017-12-29T05:11:22.855Z,0
2017-12-29T05:12:03.416Z,0
2017-12-29T05:12:43.972Z,0
2017-12-29T05:13:24.563Z,0
2017-12-29T05:14:05.119Z,0
2017-12-29T05:14:45.686Z,0
2017-12-29T05:15:26.278Z,0
2017-12-29T05:16:06.871Z,0
2017-12-29T05:16:47.442Z,0
2017-12-29T05:17:28.012Z,0
2017-12-29T05:18:08.582Z,0
2017-12-29T05:18:49.145Z,0
2017-12-29T05:19:29.728Z,0
2017-12-29T05:20:10.295Z,0
2017-12-29T05:20:50.852Z,0
2017-12-29T05:21:31.424Z,0
2017-12-29T05:22:11.979Z,0
2017-12-29T05:22:52.531Z,0
2017-12-29T05:23:33.090Z,0
2017-12-29T05:24:13.646Z,0
2017-12-29T05:24:54.211Z,0
2017-12-29T05:25:34.821Z,0
2017-12-29T05:26:15.426Z,0
2017-12-29T05:26:55.988Z,0
2017-12-29T05:27:36.556Z,0
2017-12-29T05:28:17.106Z,0
2017-12-29T05:28:57.689Z,0
2017-12-29T05:29:38.269Z,0
2017-12-29T05:30:18.826Z,0
2017-12-29T05:30:59.390Z,0
2017-12-29T05:31:39.960Z,0
2017-12-29T05:32:20.528Z,0
2017-12-29T05:33:01.082Z,0
2017-12-29T05:33:41.639Z,0
2017-12-29T05:34:22.206Z,0
2017-12-29T05:35:02.764Z,0
2017-12-29T05:35:46.097Z,0
2017-12-29T05:36:26.661Z,0
2017-12-29T05:37:07.235Z,0
2017-12-29T05:37:47.791Z,0
2017-12-29T05:38:28.368Z,0
2017-12-29T05:39:08.931Z,0
2017-12-29T05:39:49.502Z,0
2017-12-29T05:40:30.129Z,0
2017-12-29T05:41:10.697Z,0
2017-12-29T05:41:51.253Z,0
2017-12-29T05:42:31.812Z,0
2017-12-29T05:43:12.358Z,0
2017-12-29T05:43:52.957Z,0
2017-12-29T05:44:33.532Z,0
2017-12-29T05:45:14.090Z,0
2017-12-29T05:45:54.655Z,0
2017-12-29T05:46:35.208Z,0
2017-12-29T05:47:15.769Z,0
2017-12-29T05:47:56.337Z,0
2017-12-29T05:48:36.891Z,0
2017-12-29T05:49:17.452Z,0
2017-12-29T05:49:58.002Z,0
2017-12-29T05:50:38.560Z,0
2017-12-29T05:51:19.120Z,0
2017-12-29T05:51:59.687Z,0
2017-12-29T05:52:40.270Z,0
2017-12-29T05:53:20.825Z,0
2017-12-29T05:54:01.384Z,0
2017-12-29T05:54:41.942Z,0
2017-12-29T05:55:22.534Z,0
2017-12-29T05:56:03.109Z,0
2017-12-29T05:56:43.657Z,0
2017-12-29T05:57:24.216Z,0
2017-12-29T05:58:04.778Z,0
2017-12-29T05:58:45.381Z,0
2017-12-29T05:59:25.948Z,0
2017-12-29T06:00:06.549Z,0
2017-12-29T06:00:47.136Z,0
2017-12-29T06:01:27.708Z,0
2017-12-29T06:02:08.273Z,0
2017-12-29T06:02:48.850Z,0
2017-12-29T06:03:29.407Z,0
2017-12-29T06:04:09.975Z,0
2017-12-29T06:04:50.544Z,0
2017-12-29T06:05:31.119Z,0
2017-12-29T06:06:11.702Z,0
2017-12-29T06:06:52.263Z,0
2017-12-29T06:07:32.831Z,0
2017-12-29T06:08:13.397Z,4
2017-12-29T06:08:53.951Z,4
2017-12-29T06:09:34.501Z,4
2017-12-29T06:10:15.062Z,4
2017-12-29T06:10:55.631Z,4
2017-12-29T06:11:36.203Z,4
2017-12-29T06:12:16.765Z,4
2017-12-29T06:12:57.329Z,4
2017-12-29T06:13:37.915Z,4
2017-12-29T06:14:18.473Z,4
2017-12-29T06:14:59.066Z,4
2017-12-29T06:15:39.641Z,4
2017-12-29T06:16:20.223Z,4
2017-12-29T06:17:00.782Z,4
2017-12-29T06:17:41.346Z,4
2017-12-29T06:18:21.907Z,4
2017-12-29T06:19:02.482Z,4
2017-12-29T06:19:43.046Z,4
2017-12-29T06:20:23.609Z,4
2017-12-29T06:21:04.193Z,4
2017-12-29T06:21:44.761Z,4
2017-12-29T06:22:25.331Z,4
2017-12-29T06:23:05.942Z,4
2017-12-29T06:23:46.515Z,4
2017-12-29T06:24:27.079Z,4
2017-12-29T06:25:07.644Z,4
2017-12-29T06:25:48.204Z,4
2017-12-29T06:26:28.796Z,4
2017-12-29T06:27:09.356Z,4
2017-12-29T06:27:49.919Z,4
2017-12-29T06:28:30.483Z,4
2017-12-29T06:29:11.063Z,4
2017-12-29T06:29:51.619Z,4
2017-12-29T06:30:32.176Z,4
2017-12-29T06:31:12.745Z,4
2017-12-29T06:31:53.339Z,4
2017-12-29T06:32:33.899Z,4
2017-12-29T06:33:14.459Z,4
2017-12-29T06:33:55.017Z,4
2017-12-29T06:34:35.573Z,4
2017-12-29T06:35:16.131Z,4
2017-12-29T06:35:56.701Z,4
2017-12-29T06:36:37.271Z,4
2017-12-29T06:37:17.827Z,4
2017-12-29T06:37:58.383Z,4
2017-12-29T06:38:38.946Z,4
2017-12-29T06:39:19.533Z,4
2017-12-29T06:40:00.100Z,4
2017-12-29T06:40:40.658Z,0
2017-12-29T06:41:21.218Z,0
2017-12-29T06:42:01.786Z,0
2017-12-29T06:42:42.346Z,0
2017-12-29T06:43:22.916Z,0
2017-12-29T06:44:03.474Z,0
2017-12-29T06:44:44.064Z,0
2017-12-29T06:45:24.627Z,4
2017-12-29T06:46:05.193Z,4
2017-12-29T06:46:45.765Z,4
2017-12-29T06:47:26.320Z,4
2017-12-29T06:48:06.877Z,4
2017-12-29T06:48:47.441Z,4
2017-12-29T06:49:27.991Z,4
2017-12-29T06:50:08.573Z,4
2017-12-29T06:50:49.139Z,4
2017-12-29T06:51:29.710Z,4
2017-12-29T06:52:10.270Z,4
2017-12-29T06:52:50.833Z,4
2017-12-29T06:53:31.410Z,8
2017-12-29T06:54:11.968Z,4
2017-12-29T06:54:52.522Z,4
2017-12-29T06:55:33.086Z,8
2017-12-29T06:56:13.648Z,8
2017-12-29T06:56:54.220Z,8
2017-12-29T06:57:34.770Z,4
2017-12-29T06:58:15.329Z,4
2017-12-29T06:58:55.886Z,8
2017-12-29T06:59:36.583Z,8
2017-12-29T07:00:17.591Z,8
2017-12-29T07:01:03.911Z,8
2017-12-29T07:01:48.646Z,8
2017-12-29T07:02:29.261Z,8
2017-12-29T07:03:09.833Z,8
2017-12-29T07:03:50.386Z,12
2017-12-29T07:04:30.953Z,12
2017-12-29T07:05:11.519Z,16
2017-12-29T07:05:52.183Z,20
2017-12-29T07:06:33.001Z,20
2017-12-29T07:07:13.862Z,24
2017-12-29T07:07:54.612Z,24
2017-12-29T07:08:35.306Z,28
2017-12-29T07:09:15.894Z,28
2017-12-29T07:09:56.451Z,32
2017-12-29T07:10:37.012Z,32
2017-12-29T07:11:17.595Z,32
2017-12-29T07:11:58.168Z,40
2017-12-29T07:12:39.100Z,40
2017-12-29T07:13:19.960Z,40
2017-12-29T07:14:00.524Z,36
2017-12-29T07:14:41.214Z,36
2017-12-29T07:15:21.803Z,40
2017-12-29T07:16:02.723Z,44
2017-12-29T07:16:43.306Z,48
2017-12-29T07:17:23.988Z,48
2017-12-29T07:18:04.830Z,60
2017-12-29T07:18:45.904Z,60
2017-12-29T07:19:26.554Z,56
2017-12-29T07:20:07.600Z,60
2017-12-29T07:20:48.423Z,60
2017-12-29T07:21:28.994Z,60
2017-12-29T07:22:09.558Z,68
2017-12-29T07:22:50.443Z,84
2017-12-29T07:23:31.105Z,96
2017-12-29T07:24:12.455Z,108
2017-12-29T07:24:53.339Z,112
2017-12-29T07:25:33.921Z,116
2017-12-29T07:26:14.794Z,116
2017-12-29T07:26:55.936Z,112
2017-12-29T07:27:36.794Z,112
2017-12-29T07:28:17.428Z,108
2017-12-29T07:28:58.007Z,108
2017-12-29T07:29:38.906Z,104
2017-12-29T07:30:19.555Z,104
2017-12-29T07:31:00.149Z,108
2017-12-29T07:31:41.277Z,116
2017-12-29T07:32:22.398Z,124
2017-12-29T07:33:02.954Z,128
2017-12-29T07:33:43.570Z,128
2017-12-29T07:34:24.188Z,132
2017-12-29T07:35:04.808Z,132
2017-12-29T07:35:45.568Z,136
2017-12-29T07:36:26.544Z,148
2017-12-29T07:37:07.278Z,152
2017-12-29T07:37:47.910Z,152
2017-12-29T07:38:28.948Z,152
2017-12-29T07:39:10.018Z,152
2017-12-29T07:39:51.114Z,156
2017-12-29T07:40:32.675Z,160
2017-12-29T07:41:13.605Z,164
2017-12-29T07:41:54.341Z,160
2017-12-29T07:42:34.901Z,168
2017-12-29T07:43:15.467Z,172
2017-12-29T07:43:56.479Z,188
2017-12-29T07:44:37.443Z,192
2017-12-29T07:45:18.429Z,208
2017-12-29T07:45:59.252Z,208
2017-12-29T07:46:40.192Z,216
2017-12-29T07:47:21.185Z,224
2017-12-29T07:48:01.973Z,232
2017-12-29T07:48:42.632Z,232
2017-12-29T07:49:23.304Z,220
2017-12-29T07:50:03.953Z,220
2017-12-29T07:50:44.644Z,220
2017-12-29T07:51:25.288Z,200
2017-12-29T07:52:05.941Z,196
2017-12-29T07:52:46.659Z,192
2017-12-29T07:53:27.367Z,200
2017-12-29T07:54:08.103Z,208
2017-12-29T07:54:48.874Z,208
2017-12-29T07:55:29.701Z,208
2017-12-29T07:56:10.368Z,216
2017-12-29T07:56:51.169Z,216
2017-12-29T07:57:32.024Z,220
2017-12-29T07:58:12.665Z,224
2017-12-29T07:58:53.345Z,228
2017-12-29T07:59:33.932Z,236
2017-12-29T08:00:14.624Z,232
2017-12-29T08:00:55.198Z,224
2017-12-29T08:01:35.782Z,216
2017-12-29T08:02:16.356Z,208
2017-12-29T08:02:58.961Z,212
2017-12-29T08:03:40.727Z,228
2017-12-29T08:04:21.761Z,248
2017-12-29T08:05:02.900Z,268
2017-12-29T08:05:43.634Z,292
2017-12-29T08:06:24.250Z,304
2017-12-29T08:07:04.829Z,304
2017-12-29T08:07:45.494Z,296
2017-12-29T08:08:26.072Z,304
2017-12-29T08:09:06.727Z,324
2017-12-29T08:09:47.289Z,340
2017-12-29T08:10:27.856Z,324
2017-12-29T08:11:08.456Z,300
2017-12-29T08:11:49.078Z,276
2017-12-29T08:12:29.631Z,256
2017-12-29T08:13:10.269Z,236
2017-12-29T08:13:50.840Z,220
2017-12-29T08:14:31.467Z,220
2017-12-29T08:15:12.127Z,236
2017-12-29T08:15:52.702Z,260
2017-12-29T08:16:33.268Z,292
2017-12-29T08:17:13.843Z,324
2017-12-29T08:17:54.404Z,356
2017-12-29T08:18:34.975Z,388
2017-12-29T08:19:15.537Z,396
2017-12-29T08:19:56.099Z,392
2017-12-29T08:20:36.674Z,372
2017-12-29T08:21:17.246Z,356
2017-12-29T08:21:57.816Z,320
2017-12-29T08:22:38.383Z,296
2017-12-29T08:23:18.950Z,284
2017-12-29T08:23:59.528Z,284
2017-12-29T08:24:40.317Z,284
2017-12-29T08:25:21.108Z,276
2017-12-29T08:26:01.797Z,240
2017-12-29T08:26:42.389Z,220
2017-12-29T08:27:22.949Z,216
2017-12-29T08:28:03.866Z,240
2017-12-29T08:28:44.438Z,260
2017-12-29T08:29:25.105Z,276
2017-12-29T08:30:05.661Z,292
2017-12-29T08:30:46.228Z,292
2017-12-29T08:31:26.902Z,292
2017-12-29T08:32:07.476Z,280
2017-12-29T08:32:48.076Z,292
2017-12-29T08:33:28.637Z,304
2017-12-29T08:34:09.198Z,316
2017-12-29T08:34:49.805Z,320
2017-12-29T08:35:30.444Z,328
2017-12-29T08:36:11.041Z,348
2017-12-29T08:36:51.626Z,388
2017-12-29T08:37:32.190Z,432
2017-12-29T08:38:12.789Z,476
2017-12-29T08:38:53.392Z,496
2017-12-29T08:39:34.007Z,484
2017-12-29T08:40:14.592Z,488
2017-12-29T08:40:55.167Z,516
2017-12-29T08:41:35.722Z,516
2017-12-29T08:42:16.527Z,532
2017-12-29T08:42:57.167Z,560
2017-12-29T08:43:37.731Z,548
2017-12-29T08:44:18.370Z,540
2017-12-29T08:44:59.037Z,552
2017-12-29T08:45:39.833Z,540
2017-12-29T08:46:20.380Z,496
2017-12-29T08:47:01.036Z,492
2017-12-29T08:47:41.654Z,468
2017-12-29T08:48:22.221Z,444
2017-12-29T08:49:02.799Z,444
2017-12-29T08:49:43.386Z,492
2017-12-29T08:50:23.961Z,548
2017-12-29T08:51:04.901Z,604
2017-12-29T08:51:45.955Z,700
2017-12-29T08:52:26.400Z,812
2017-12-29T08:53:06.975Z,920
2017-12-29T08:53:47.530Z,860
2017-12-29T08:54:28.095Z,776
2017-12-29T08:55:08.699Z,704
2017-12-29T08:55:49.266Z,636
2017-12-29T08:56:29.843Z,600
2017-12-29T08:57:10.414Z,572
2017-12-29T08:57:51.014Z,584
2017-12-29T08:58:31.569Z,604
2017-12-29T08:59:12.454Z,584
2017-12-29T08:59:53.045Z,556
2017-12-29T09:00:33.650Z,556
2017-12-29T09:01:14.206Z,612
2017-12-29T09:01:54.769Z,640
2017-12-29T09:02:35.733Z,680
2017-12-29T09:03:16.303Z,744
2017-12-29T09:03:56.877Z,744
2017-12-29T09:04:37.544Z,712
2017-12-29T09:05:18.122Z,692
2017-12-29T09:05:58.689Z,732
2017-12-29T09:06:39.268Z,712
2017-12-29T09:07:19.869Z,692
2017-12-29T09:08:00.479Z,728
2017-12-29T09:08:41.137Z,772
2017-12-29T09:09:22.104Z,832
2017-12-29T09:10:02.991Z,912
2017-12-29T09:10:43.827Z,896
2017-12-29T09:11:24.499Z,876
2017-12-29T09:12:05.396Z,884
2017-12-29T09:12:46.140Z,868
2017-12-29T09:13:27.016Z,844
2017-12-29T09:14:08.131Z,800
2017-12-29T09:14:49.171Z,776
2017-12-29T09:15:29.968Z,768
2017-12-29T09:16:10.665Z,748
2017-12-29T09:16:51.458Z,736
2017-12-29T09:17:32.337Z,728
2017-12-29T09:18:13.091Z,756
2017-12-29T09:18:54.086Z,792
2017-12-29T09:19:35.081Z,800
2017-12-29T09:20:15.791Z,784
2017-12-29T09:20:56.454Z,764
2017-12-29T09:21:37.105Z,772
2017-12-29T09:22:18.272Z,792
2017-12-29T09:22:59.143Z,840
2017-12-29T09:23:39.706Z,828
2017-12-29T09:24:20.329Z,820
2017-12-29T09:25:00.884Z,884
2017-12-29T09:25:41.444Z,992
2017-12-29T09:26:22.070Z,1004
2017-12-29T09:27:02.630Z,996
2017-12-29T09:27:43.461Z,972
2017-12-29T09:28:24.024Z,1004
2017-12-29T09:29:04.584Z,1084
2017-12-29T09:29:45.136Z,1148
2017-12-29T09:30:25.698Z,1124
2017-12-29T09:31:06.254Z,1128
2017-12-29T09:31:46.817Z,1132
2017-12-29T09:32:27.426Z,1128
2017-12-29T09:33:08.008Z,1124
2017-12-29T09:33:48.579Z,1136
2017-12-29T09:34:29.185Z,1124
2017-12-29T09:35:09.750Z,1080
2017-12-29T09:35:50.332Z,1060
2017-12-29T09:36:30.905Z,1080
2017-12-29T09:37:11.483Z,1028
2017-12-29T09:37:52.046Z,968
2017-12-29T09:38:32.631Z,944
2017-12-29T09:39:13.231Z,916
2017-12-29T09:39:53.853Z,972
2017-12-29T09:40:34.422Z,1040
2017-12-29T09:41:15.021Z,1064
2017-12-29T09:41:55.591Z,1064
2017-12-29T09:42:36.175Z,1068
2017-12-29T09:43:16.756Z,1036
2017-12-29T09:43:57.328Z,992
2017-12-29T09:44:37.893Z,944
2017-12-29T09:45:18.482Z,932
2017-12-29T09:45:59.061Z,916
2017-12-29T09:46:39.622Z,832
2017-12-29T09:47:20.180Z,804
2017-12-29T09:48:00.750Z,760
2017-12-29T09:48:41.322Z,768